createdAt,value
2023-05-05T00:00:26.294Z,13.52
2023-05-05T00:02:52.982Z,13.50
2023-05-05T00:05:19.700Z,13.51
2023-05-05T00:07:46.217Z,13.48
2023-05-05T00:10:12.730Z,13.46
2023-05-05T00:12:39.544Z,13.45
2023-05-05T00:15:07.388Z,13.43
2023-05-05T00:17:34.028Z,13.41
2023-05-05T00:20:00.878Z,13.38
2023-05-05T00:22:27.372Z,13.36
2023-05-05T00:24:53.825Z,13.35
2023-05-05T00:27:20.305Z,13.33
2023-05-05T00:29:49.091Z,13.36
2023-05-05T00:32:15.573Z,13.38
2023-05-05T00:34:42.140Z,13.39
2023-05-05T00:37:08.897Z,13.41
2023-05-05T00:39:35.443Z,13.42
2023-05-05T00:42:01.954Z,13.46
2023-05-05T00:44:40.752Z,13.43
2023-05-05T00:47:12.503Z,13.35
2023-05-05T00:49:39.750Z,13.25
2023-05-05T00:52:07.462Z,13.19
2023-05-05T00:54:35.087Z,13.15
2023-05-05T00:57:04.808Z,13.13
2023-05-05T00:59:37.230Z,13.14
2023-05-05T01:02:03.872Z,13.19
2023-05-05T01:04:30.589Z,13.20
2023-05-05T01:07:17.475Z,13.17
2023-05-05T01:10:25.631Z,13.14
2023-05-05T01:13:23.046Z,13.13
2023-05-05T01:15:49.614Z,13.08
2023-05-05T01:18:35.097Z,13.09
2023-05-05T01:21:23.712Z,13.14
2023-05-05T01:23:56.295Z,13.18
2023-05-05T01:26:51.332Z,13.26
2023-05-05T01:30:10.335Z,13.41
2023-05-05T01:32:48.099Z,13.52
2023-05-05T01:35:32.911Z,13.57
2023-05-05T01:38:06.215Z,13.62
2023-05-05T01:40:38.273Z,13.68
2023-05-05T01:43:07.512Z,13.77
2023-05-05T01:45:38.009Z,13.82
2023-05-05T01:48:06.686Z,13.90
2023-05-05T01:50:34.584Z,13.95
2023-05-05T01:53:03.812Z,13.97
2023-05-05T01:55:32.408Z,14.00
2023-05-05T01:58:00.180Z,14.03
2023-05-05T02:00:49.785Z,14.01
2023-05-05T02:03:17.850Z,14.07
2023-05-05T02:05:45.350Z,14.15
2023-05-05T02:08:12.647Z,14.21
2023-05-05T02:10:43.643Z,14.28
2023-05-05T02:13:13.340Z,14.35
2023-05-05T02:15:40.864Z,14.41
2023-05-05T02:18:07.764Z,14.47
2023-05-05T02:20:37.355Z,14.52
2023-05-05T02:23:05.812Z,14.55
2023-05-05T02:25:53.216Z,14.46
2023-05-05T02:28:48.972Z,14.40
2023-05-05T02:31:17.855Z,14.35
2023-05-05T02:33:49.846Z,14.33
2023-05-05T02:36:22.717Z,14.28
2023-05-05T02:38:55.569Z,14.18
2023-05-05T02:41:23.348Z,14.11
2023-05-05T02:43:52.342Z,14.01
2023-05-05T02:46:19.511Z,13.93
2023-05-05T02:48:46.480Z,13.83
2023-05-05T02:51:13.010Z,13.75
2023-05-05T02:53:39.957Z,13.63
2023-05-05T02:56:29.592Z,13.51
2023-05-05T02:59:16.498Z,13.36
2023-05-05T03:02:17.419Z,13.21
2023-05-05T03:05:09.907Z,13.07
2023-05-05T03:07:48.045Z,12.95
2023-05-05T03:10:18.445Z,12.87
2023-05-05T03:13:07.583Z,12.77
2023-05-05T03:15:54.779Z,12.70
2023-05-05T03:18:23.216Z,12.65
2023-05-05T03:20:53.454Z,12.60
2023-05-05T03:23:21.061Z,12.56
2023-05-05T03:25:49.292Z,12.52
2023-05-05T03:28:16.820Z,12.45
2023-05-05T03:30:44.152Z,12.43
2023-05-05T03:33:11.918Z,12.38
2023-05-05T03:35:38.381Z,12.36
2023-05-05T03:38:04.840Z,12.34
2023-05-05T03:40:43.640Z,12.31
2023-05-05T03:43:11.537Z,12.30
2023-05-05T03:45:38.780Z,12.32
2023-05-05T03:48:06.182Z,12.30
2023-05-05T03:50:32.745Z,12.26
2023-05-05T03:52:59.566Z,12.24
2023-05-05T03:55:26.116Z,12.24
2023-05-05T03:57:52.573Z,12.22
2023-05-05T04:00:19.430Z,12.22
2023-05-05T04:02:46.047Z,12.21
2023-05-05T04:05:12.652Z,12.21
2023-05-05T04:07:39.623Z,12.23
2023-05-05T04:10:07.350Z,12.23
2023-05-05T04:12:34.049Z,12.24
2023-05-05T04:15:00.596Z,12.23
2023-05-05T04:17:27.102Z,12.21
2023-05-05T04:19:54.688Z,12.18
2023-05-05T04:22:21.268Z,12.17
2023-05-05T04:24:48.099Z,12.16
2023-05-05T04:27:14.556Z,12.12
2023-05-05T04:29:41.407Z,12.10
2023-05-05T04:32:09.225Z,12.09
2023-05-05T04:34:35.836Z,12.10
2023-05-05T04:37:02.326Z,12.11
2023-05-05T04:39:30.239Z,12.14
2023-05-05T04:41:56.680Z,12.19
2023-05-05T04:44:23.353Z,12.22
2023-05-05T04:46:49.818Z,12.21
2023-05-05T04:49:16.354Z,12.23
2023-05-05T04:51:42.864Z,12.26
2023-05-05T04:54:09.348Z,12.31
2023-05-05T04:56:35.943Z,12.37
2023-05-05T04:59:02.475Z,12.45
2023-05-05T05:01:29.013Z,12.52
2023-05-05T05:03:56.901Z,12.58
2023-05-05T05:06:23.495Z,12.66
2023-05-05T05:08:50.119Z,12.74
2023-05-05T05:11:16.601Z,12.84
2023-05-05T05:13:43.362Z,12.90
2023-05-05T05:16:10.059Z,13.00
2023-05-05T05:18:36.595Z,13.09
2023-05-05T05:21:03.545Z,13.15
2023-05-05T05:23:30.075Z,13.27
2023-05-05T05:25:57.144Z,13.37
2023-05-05T05:28:24.008Z,14.14
2023-05-05T05:30:50.676Z,15.49
2023-05-05T05:33:17.099Z,16.38
2023-05-05T05:35:43.596Z,16.94
2023-05-05T05:38:09.967Z,17.23
2023-05-05T05:40:38.035Z,17.23
2023-05-05T05:43:04.513Z,16.64
2023-05-05T05:45:31.055Z,16.34
2023-05-05T05:47:57.820Z,16.12
2023-05-05T05:50:27.127Z,16.11
2023-05-05T05:52:53.671Z,16.07
2023-05-05T05:55:20.128Z,16.14
2023-05-05T05:57:46.628Z,16.43
2023-05-05T06:00:13.926Z,17.58
2023-05-05T06:02:40.725Z,18.72
2023-05-05T06:05:07.545Z,20.32
2023-05-05T06:07:34.020Z,21.84
2023-05-05T06:10:10.910Z,22.65
2023-05-05T06:12:45.481Z,22.51
2023-05-05T06:15:11.995Z,22.05
2023-05-05T06:17:38.533Z,21.49
2023-05-05T06:20:06.049Z,21.00
2023-05-05T06:22:32.837Z,20.22
2023-05-05T06:24:59.515Z,20.07
2023-05-05T06:27:26.063Z,19.51
2023-05-05T06:29:52.641Z,19.25
2023-05-05T06:32:20.404Z,18.73
2023-05-05T06:34:48.301Z,18.32
2023-05-05T06:37:15.452Z,18.20
2023-05-05T06:39:42.003Z,18.12
2023-05-05T06:42:08.585Z,18.21
2023-05-05T06:44:36.516Z,18.09
2023-05-05T06:47:04.054Z,18.11
2023-05-05T06:49:32.852Z,18.06
2023-05-05T06:51:59.579Z,18.18
2023-05-05T06:54:26.377Z,18.27
2023-05-05T06:56:52.985Z,18.39
2023-05-05T06:59:21.239Z,18.36
2023-05-05T07:01:48.245Z,18.26
2023-05-05T07:04:14.926Z,18.35
2023-05-05T07:06:44.034Z,18.42
2023-05-05T07:09:10.794Z,18.40
2023-05-05T07:11:37.989Z,18.50
2023-05-05T07:14:04.716Z,18.46
2023-05-05T07:16:31.308Z,18.56
2023-05-05T07:18:58.212Z,18.54
2023-05-05T07:21:24.840Z,18.49
2023-05-05T07:23:51.630Z,18.51
2023-05-05T07:26:18.273Z,18.43
2023-05-05T07:28:44.989Z,18.32
2023-05-05T07:31:11.826Z,18.21
2023-05-05T07:33:38.655Z,18.34
2023-05-05T07:36:06.261Z,18.54
2023-05-05T07:38:42.261Z,18.92
2023-05-05T07:41:12.299Z,19.03
2023-05-05T07:43:42.818Z,19.22
2023-05-05T07:46:11.064Z,19.50
2023-05-05T07:48:42.685Z,19.46
2023-05-05T07:51:09.989Z,19.44
2023-05-05T07:53:37.170Z,19.40
2023-05-05T07:56:04.181Z,19.55
2023-05-05T07:58:30.957Z,19.52
2023-05-05T08:00:57.753Z,19.53
2023-05-05T08:03:24.994Z,19.49
2023-05-05T08:05:55.962Z,19.71
2023-05-05T08:08:27.007Z,19.95
2023-05-05T08:10:53.586Z,20.04
2023-05-05T08:13:35.710Z,19.94
2023-05-05T08:16:02.730Z,20.06
2023-05-05T08:18:29.741Z,20.18
2023-05-05T08:20:56.740Z,20.18
2023-05-05T08:23:23.370Z,20.40
2023-05-05T08:25:49.977Z,20.58
2023-05-05T08:28:16.581Z,21.18
2023-05-05T08:30:45.783Z,21.38
2023-05-05T08:33:12.488Z,21.60
2023-05-05T08:35:39.184Z,21.84
2023-05-05T08:38:08.670Z,21.91
2023-05-05T08:40:37.925Z,21.55
2023-05-05T08:43:05.048Z,21.22
2023-05-05T08:45:32.203Z,21.21
2023-05-05T08:48:02.656Z,21.28
2023-05-05T08:50:29.935Z,21.34
2023-05-05T08:53:11.715Z,21.29
2023-05-05T08:55:48.130Z,21.19
2023-05-05T08:58:27.028Z,21.20
2023-05-05T09:00:56.467Z,21.23
2023-05-05T09:03:23.628Z,21.17
2023-05-05T09:05:51.093Z,21.12
2023-05-05T09:08:18.089Z,20.85
2023-05-05T09:10:44.904Z,20.45
2023-05-05T09:13:11.598Z,20.21
2023-05-05T09:15:42.215Z,20.12
2023-05-05T09:18:09.689Z,19.94
2023-05-05T09:20:38.394Z,19.89
2023-05-05T09:23:16.584Z,19.80
2023-05-05T09:25:47.063Z,19.90
2023-05-05T09:28:16.509Z,19.98
2023-05-05T09:30:45.004Z,20.05
2023-05-05T09:33:12.173Z,20.10
2023-05-05T09:35:55.784Z,20.02
2023-05-05T09:38:24.632Z,19.72
2023-05-05T09:40:53.953Z,19.49
2023-05-05T09:43:22.286Z,19.35
2023-05-05T09:45:49.583Z,19.36
2023-05-05T09:48:30.641Z,19.26
2023-05-05T09:50:58.610Z,19.30
2023-05-05T09:53:26.560Z,19.38
2023-05-05T09:55:57.611Z,19.33
2023-05-05T09:58:35.317Z,19.32
2023-05-05T10:01:01.897Z,19.28
2023-05-05T10:03:28.405Z,19.15
2023-05-05T10:05:57.372Z,19.08
2023-05-05T10:08:30.479Z,19.06
2023-05-05T10:11:06.462Z,19.16
2023-05-05T10:13:39.980Z,18.97
2023-05-05T10:16:09.183Z,18.85
2023-05-05T10:18:39.669Z,18.50
2023-05-05T10:21:07.327Z,16.59
2023-05-05T10:23:51.256Z,13.91
2023-05-05T10:26:21.105Z,13.07
2023-05-05T10:28:55.162Z,12.88
2023-05-05T10:31:48.034Z,12.98
2023-05-05T10:34:45.244Z,13.17
2023-05-05T10:37:12.070Z,13.33
2023-05-05T10:39:38.748Z,13.47
2023-05-05T10:42:05.410Z,13.51
2023-05-05T10:44:33.252Z,13.50
2023-05-05T10:47:01.590Z,13.46
2023-05-05T10:49:28.204Z,13.51
2023-05-05T10:52:16.881Z,13.58
2023-05-05T10:54:50.824Z,13.46
2023-05-05T10:57:21.748Z,13.38
2023-05-05T10:59:48.415Z,13.33
2023-05-05T11:02:34.344Z,13.36
2023-05-05T11:05:17.854Z,13.32
2023-05-05T11:07:46.472Z,13.27
2023-05-05T11:10:17.787Z,13.25
2023-05-05T11:13:00.446Z,13.25
2023-05-05T11:15:37.373Z,13.32
2023-05-05T11:18:07.512Z,13.38
2023-05-05T11:20:40.664Z,13.39
2023-05-05T11:23:07.446Z,13.33
2023-05-05T11:25:37.503Z,13.37
2023-05-05T11:28:12.362Z,13.42
2023-05-05T11:31:03.108Z,13.45
2023-05-05T11:33:37.898Z,13.47
2023-05-05T11:36:12.490Z,13.40
2023-05-05T11:38:39.845Z,13.26
2023-05-05T11:41:09.679Z,13.20
2023-05-05T11:43:36.936Z,13.19
2023-05-05T11:46:14.604Z,13.20
2023-05-05T11:48:47.886Z,13.10
2023-05-05T11:51:19.065Z,13.05
2023-05-05T11:53:47.462Z,13.04
2023-05-05T11:56:22.353Z,13.06
2023-05-05T11:58:49.432Z,13.11
2023-05-05T12:01:16.170Z,13.07
2023-05-05T12:03:45.247Z,13.13
2023-05-05T12:06:13.208Z,13.18
2023-05-05T12:08:41.200Z,13.23
2023-05-05T12:11:11.976Z,13.23
2023-05-05T12:13:38.937Z,13.24
2023-05-05T12:16:16.081Z,13.26
2023-05-05T12:18:43.636Z,13.26
2023-05-05T12:21:20.866Z,13.31
2023-05-05T12:23:49.940Z,13.37
2023-05-05T12:26:43.509Z,13.43
2023-05-05T12:29:11.246Z,13.48
2023-05-05T12:31:42.097Z,13.50
2023-05-05T12:34:10.513Z,13.46
2023-05-05T12:36:38.514Z,13.42
2023-05-05T12:39:05.868Z,13.42
2023-05-05T12:41:35.914Z,13.42
2023-05-05T12:44:04.729Z,13.39
2023-05-05T12:46:48.037Z,13.47
2023-05-05T12:49:15.791Z,13.50
2023-05-05T12:51:58.653Z,13.55
2023-05-05T12:54:32.587Z,13.57
2023-05-05T12:57:11.568Z,13.58
2023-05-05T12:59:39.490Z,13.57
2023-05-05T13:02:09.800Z,13.55
2023-05-05T13:04:49.455Z,13.53
2023-05-05T13:07:17.929Z,13.52
2023-05-05T13:09:47.200Z,13.61
2023-05-05T13:12:15.200Z,13.57
2023-05-05T13:14:42.626Z,13.71
2023-05-05T13:17:13.482Z,13.76
2023-05-05T13:19:46.909Z,13.70
2023-05-05T13:22:18.648Z,13.60
2023-05-05T13:24:51.453Z,13.65
2023-05-05T13:27:20.173Z,13.58
2023-05-05T13:29:49.227Z,13.55
2023-05-05T13:32:16.315Z,13.53
2023-05-05T13:34:46.760Z,13.53
2023-05-05T13:37:14.144Z,13.46
2023-05-05T13:39:40.902Z,13.44
2023-05-05T13:42:08.058Z,13.40
2023-05-05T13:44:35.784Z,13.37
2023-05-05T13:47:03.305Z,13.32
2023-05-05T13:49:30.431Z,13.25
2023-05-05T13:51:58.576Z,13.19
2023-05-05T13:54:25.757Z,13.16
2023-05-05T13:56:53.817Z,13.09
2023-05-05T13:59:20.889Z,13.07
2023-05-05T14:01:49.279Z,13.07
2023-05-05T14:04:17.924Z,13.09
2023-05-05T14:06:46.443Z,13.13
2023-05-05T14:09:13.214Z,13.11
2023-05-05T14:11:40.166Z,13.11
2023-05-05T14:14:07.284Z,13.13
2023-05-05T14:16:34.106Z,13.13
2023-05-05T14:19:01.529Z,13.13
2023-05-05T14:21:28.789Z,13.13
2023-05-05T14:23:55.811Z,13.14
2023-05-05T14:26:23.383Z,13.22
2023-05-05T14:28:50.264Z,13.35
2023-05-05T14:31:17.754Z,13.36
2023-05-05T14:33:44.562Z,13.30
2023-05-05T14:36:11.196Z,13.25
2023-05-05T14:38:38.063Z,13.23
2023-05-05T14:41:05.290Z,13.13
2023-05-05T14:43:41.588Z,13.07
2023-05-05T14:46:08.407Z,12.95
2023-05-05T14:48:35.291Z,13.06
2023-05-05T14:51:01.953Z,13.64
2023-05-05T14:53:28.646Z,14.41
2023-05-05T14:55:56.108Z,14.84
2023-05-05T14:58:24.589Z,15.26
2023-05-05T15:00:52.919Z,15.39
2023-05-05T15:03:19.734Z,15.20
2023-05-05T15:05:47.070Z,15.45
2023-05-05T15:08:19.871Z,15.33
2023-05-05T15:10:47.014Z,15.18
2023-05-05T15:13:14.217Z,15.15
2023-05-05T15:15:41.409Z,15.07
2023-05-05T15:18:08.466Z,15.00
2023-05-05T15:20:35.729Z,14.81
2023-05-05T15:23:02.844Z,14.72
2023-05-05T15:25:30.062Z,14.75
2023-05-05T15:27:58.023Z,14.77
2023-05-05T15:30:25.113Z,15.06
2023-05-05T15:32:51.982Z,15.20
2023-05-05T15:35:19.219Z,15.31
2023-05-05T15:37:48.192Z,15.20
2023-05-05T15:40:15.086Z,15.41
2023-05-05T15:42:41.858Z,15.43
2023-05-05T15:45:12.497Z,15.55
2023-05-05T15:47:39.343Z,15.50
2023-05-05T15:50:09.055Z,15.48
2023-05-05T15:52:38.277Z,15.46
2023-05-05T15:55:09.006Z,15.49
2023-05-05T15:57:36.143Z,15.44
2023-05-05T16:00:03.030Z,15.33
2023-05-05T16:02:29.862Z,15.23
2023-05-05T16:05:00.099Z,15.26
2023-05-05T16:07:26.942Z,15.18
2023-05-05T16:09:53.738Z,15.11
2023-05-05T16:12:23.319Z,15.24
2023-05-05T16:14:50.334Z,15.36
2023-05-05T16:17:16.910Z,15.47
2023-05-05T16:19:43.759Z,15.36
2023-05-05T16:22:10.629Z,15.31
2023-05-05T16:24:37.554Z,15.15
2023-05-05T16:27:04.603Z,14.98
2023-05-05T16:29:31.360Z,14.81
2023-05-05T16:32:00.613Z,14.81
2023-05-05T16:34:27.400Z,14.87
2023-05-05T16:36:54.064Z,14.96
2023-05-05T16:39:23.534Z,15.00
2023-05-05T16:41:53.147Z,15.02
2023-05-05T16:44:19.826Z,15.04
2023-05-05T16:46:47.800Z,14.99
2023-05-05T16:49:14.467Z,14.86
2023-05-05T16:51:41.336Z,14.77
2023-05-05T16:54:08.056Z,14.72
2023-05-05T16:56:34.681Z,14.67
2023-05-05T16:59:01.480Z,14.57
2023-05-05T17:01:28.166Z,14.52
2023-05-05T17:03:55.601Z,14.45
2023-05-05T17:06:22.409Z,14.46
2023-05-05T17:08:49.082Z,14.48
2023-05-05T17:11:15.574Z,14.44
2023-05-05T17:13:42.317Z,14.44
2023-05-05T17:16:08.947Z,14.44
2023-05-05T17:18:35.460Z,14.46
2023-05-05T17:21:05.413Z,14.47
2023-05-05T17:23:32.265Z,14.45
2023-05-05T17:25:59.404Z,14.41
2023-05-05T17:28:31.975Z,14.39
2023-05-05T17:31:00.006Z,14.40
2023-05-05T17:33:26.744Z,14.36
2023-05-05T17:35:54.566Z,14.32
2023-05-05T17:38:21.435Z,14.29
2023-05-05T17:40:50.296Z,14.32
2023-05-05T17:43:16.809Z,14.33
2023-05-05T17:45:43.475Z,14.34
2023-05-05T17:48:11.270Z,14.32
2023-05-05T17:50:37.749Z,14.33
2023-05-05T17:53:04.841Z,14.29
2023-05-05T17:55:31.389Z,14.27
2023-05-05T17:57:59.030Z,14.23
2023-05-05T18:00:29.301Z,14.20
2023-05-05T18:02:56.131Z,14.17
2023-05-05T18:05:22.886Z,14.15
2023-05-05T18:07:51.623Z,14.12
2023-05-05T18:10:19.245Z,14.08
2023-05-05T18:12:45.851Z,14.06
2023-05-05T18:15:12.433Z,14.05
2023-05-05T18:17:41.895Z,14.01
2023-05-05T18:20:09.107Z,13.97
2023-05-05T18:22:35.954Z,13.94
2023-05-05T18:25:02.528Z,13.93
2023-05-05T18:27:29.271Z,13.89
2023-05-05T18:29:58.624Z,13.89
2023-05-05T18:32:25.271Z,13.82
2023-05-05T18:34:51.841Z,13.71
2023-05-05T18:37:18.362Z,13.58
2023-05-05T18:39:45.244Z,13.50
2023-05-05T18:42:13.125Z,13.41
2023-05-05T18:44:41.525Z,13.35
2023-05-05T18:47:08.260Z,13.30
2023-05-05T18:49:35.032Z,13.25
2023-05-05T18:52:01.512Z,13.17
2023-05-05T18:54:30.449Z,13.09
2023-05-05T18:56:57.348Z,13.04
2023-05-05T18:59:23.834Z,12.99
2023-05-05T19:01:50.326Z,12.85
2023-05-05T19:04:30.061Z,12.69
2023-05-05T19:06:59.914Z,12.53
2023-05-05T19:09:26.792Z,12.27
2023-05-05T19:11:55.821Z,12.12
2023-05-05T19:14:22.880Z,12.01
2023-05-05T19:16:49.559Z,11.89
2023-05-05T19:19:22.303Z,11.86
2023-05-05T19:21:48.826Z,11.88
2023-05-05T19:24:17.040Z,11.87
2023-05-05T19:26:47.588Z,11.88
2023-05-05T19:29:14.184Z,11.86
2023-05-05T19:31:40.859Z,11.88
2023-05-05T19:34:10.167Z,11.85
2023-05-05T19:36:36.727Z,11.78
2023-05-05T19:39:04.772Z,11.71
2023-05-05T19:41:31.448Z,11.66
2023-05-05T19:43:58.127Z,11.64
2023-05-05T19:46:27.180Z,11.57
2023-05-05T19:48:53.668Z,11.48
2023-05-05T19:51:21.365Z,11.35
2023-05-05T19:53:47.904Z,11.17
2023-05-05T19:56:14.429Z,10.99
2023-05-05T19:58:57.619Z,10.86
2023-05-05T20:01:24.473Z,10.73
2023-05-05T20:03:54.268Z,10.69
2023-05-05T20:06:21.217Z,10.65
2023-05-05T20:08:47.758Z,10.56
2023-05-05T20:11:15.822Z,10.51
2023-05-05T20:13:43.075Z,10.46
2023-05-05T20:16:10.099Z,10.31
2023-05-05T20:18:36.572Z,10.24
2023-05-05T20:21:03.262Z,10.21
2023-05-05T20:23:29.953Z,10.20
2023-05-05T20:25:56.768Z,10.19
2023-05-05T20:28:23.659Z,10.17
2023-05-05T20:30:50.183Z,10.17
2023-05-05T20:33:16.684Z,10.22
2023-05-05T20:35:43.098Z,10.32
2023-05-05T20:38:09.860Z,10.37
2023-05-05T20:40:38.651Z,10.41
2023-05-05T20:43:05.168Z,10.34
2023-05-05T20:45:34.200Z,10.21
2023-05-05T20:48:01.697Z,10.16
2023-05-05T20:50:28.267Z,10.11
2023-05-05T20:52:55.004Z,10.11
2023-05-05T20:55:24.079Z,10.08
2023-05-05T20:57:50.603Z,10.05
2023-05-05T21:00:17.179Z,10.03
2023-05-05T21:02:43.782Z,10.01
2023-05-05T21:05:10.530Z,9.99
2023-05-05T21:07:37.358Z,9.99
2023-05-05T21:10:04.916Z,9.95
2023-05-05T21:12:33.814Z,9.95
2023-05-05T21:15:00.731Z,9.94
2023-05-05T21:17:27.840Z,9.91
2023-05-05T21:19:55.527Z,9.92
2023-05-05T21:22:22.397Z,9.95
2023-05-05T21:24:49.188Z,9.93
2023-05-05T21:27:16.081Z,9.95
2023-05-05T21:29:42.566Z,9.91
2023-05-05T21:32:10.806Z,9.90
2023-05-05T21:34:38.334Z,9.99
2023-05-05T21:37:42.925Z,10.69
2023-05-05T21:40:14.029Z,10.22
2023-05-05T21:42:51.862Z,10.22
2023-05-05T21:45:34.579Z,10.22
2023-05-05T21:48:01.609Z,10.23
2023-05-05T21:50:29.910Z,10.15
2023-05-05T21:52:56.538Z,10.14
2023-05-05T21:55:23.079Z,10.11
2023-05-05T21:57:49.492Z,10.00
2023-05-05T22:00:16.780Z,9.88
2023-05-05T22:02:45.297Z,9.77
2023-05-05T22:05:13.644Z,9.69
2023-05-05T22:07:40.705Z,9.67
2023-05-05T22:10:08.074Z,9.64
2023-05-05T22:12:34.852Z,9.54
2023-05-05T22:15:01.417Z,9.51
2023-05-05T22:17:27.958Z,9.48
2023-05-05T22:19:58.195Z,9.47
2023-05-05T22:22:24.661Z,9.44
2023-05-05T22:24:51.461Z,9.45
2023-05-05T22:27:17.912Z,9.46
2023-05-05T22:29:44.474Z,9.41
2023-05-05T22:32:12.315Z,9.35
2023-05-05T22:34:40.313Z,9.35
2023-05-05T22:37:06.777Z,9.36
2023-05-05T22:39:33.352Z,9.35
2023-05-05T22:41:59.902Z,9.35
2023-05-05T22:44:26.439Z,9.39
2023-05-05T22:46:52.995Z,9.40
2023-05-05T22:49:19.668Z,9.40
2023-05-05T22:51:47.009Z,9.34
2023-05-05T22:54:13.476Z,9.35
2023-05-05T22:56:40.377Z,9.43
2023-05-05T22:59:06.898Z,9.47
2023-05-05T23:01:34.002Z,9.47
2023-05-05T23:04:00.709Z,9.44
2023-05-05T23:06:28.000Z,9.42
2023-05-05T23:08:54.570Z,9.38
2023-05-05T23:11:21.188Z,9.37
2023-05-05T23:13:50.523Z,9.42
2023-05-05T23:16:18.516Z,9.44
2023-05-05T23:18:45.186Z,9.47
2023-05-05T23:21:11.698Z,9.46
2023-05-05T23:23:38.475Z,9.50
2023-05-05T23:26:05.125Z,9.54
2023-05-05T23:28:31.651Z,9.55
2023-05-05T23:30:58.342Z,9.52
2023-05-05T23:33:27.812Z,9.50
2023-05-05T23:35:54.355Z,9.48
2023-05-05T23:38:22.707Z,9.51
2023-05-05T23:40:49.232Z,9.53
2023-05-05T23:43:15.912Z,9.57
2023-05-05T23:45:42.386Z,9.59
2023-05-05T23:48:08.961Z,9.66
2023-05-05T23:50:35.587Z,9.68
2023-05-05T23:53:02.075Z,9.70
2023-05-05T23:55:28.644Z,9.69
2023-05-05T23:57:55.658Z,9.68
